Portada
METAR-TAF:

METAR-TAF

Aeropuertos :

Rolla National Airport

Rolla, Misuri, Estados Unidos

latitud: 38-07-55N, longitud: 091-45-55W, altitud: 350 m

Observación

El informe se hizo hace 1 hora y 3 minutos, a las 21:53 UTC
Viento 10 kt del norte-noroeste
Temperatura 28°C
Humedad 51%
Presión 1019 hPa
Visibilidad: 11.3 km
Escasas nubes a una altura de 6500 ft

METAR: KVIH 012153Z AUTO 34010KT 7SM FEW065 28/17 A3008 RMK AO2 SLP174 T02830167

Hora: 17:56 (22:56 UTC)


TAF: falta

Observaciones y pronósticos meteorológicos de más de 4000 aeropuertos (mensajes METAR y TAF).

Los puntos amarillos y rojos representan las estaciones disponibles.

Ponga el ratón en el punto deseado para ver el nombre de la estación.

Haga clic para ver las observaciones y los pronósticos meteorológicos.

Para cambiar el mapa : haga clic en los botones verdes con una cruz de color negro para hacer un zoom, en el botón verde con un guión para alejar o en las flechas verdes para mapas adyacentes.


METAR-TAF: